Hrossey — VSTY6 — position and weather

sailwx.info

Track history (hours):
 
Tides and Currents Weather Stations Pressure Air Temp Water Temp Dewpoint Dewpoint Depression Visibility Wind Speed Wind Dir Waves Ship Positions

Hrossey

Operator: NorthLink Orkey & Shetland Ferries Ltd

Last reported at 2020-Jan-28 17:58 UTC. Time now 2020-Jan-28 19:27 UTC.
Position N 57°09' W 002°05'.

Length 125 m; draft 5.4 m.

Type: Ship. MMSI: 235448000.

Date/timePositionNaut miles runAvg speedWind from/ knotsBaromVisibWave heightAir tempDewpointWater temp
2020-Jan-28 17:58N 57°09' W 002°05'0 0.0
2020-Jan-28 13:59N 57°09' W 002°05'0 0.0
2020-Jan-28 13:29N 57°09' W 002°05'0 0.0
2020-Jan-28 10:59N 57°09' W 002°05'26 4.0
2020-Jan-28 04:30N 57°30' W 001°38'98 3.6
2020-Jan-27 01:09N 59°04' W 002°28'10 3.7
2020-Jan-26 22:30N 58°60' W 002°46'917.0
2020-Jan-26 22:00N 58°54' W 002°34'7722.0
2020-Jan-26 18:31N 57°41' W 001°46'1224.5
2020-Jan-26 18:01N 57°29' W 001°42'24 9.4
2020-Jan-26 15:28N 57°09' W 002°05'0 0.0
2020-Jan-26 14:28N 57°09' W 002°05'0 0.0
2020-Jan-26 13:58N 57°09' W 002°05'0 0.0
2020-Jan-26 11:58N 57°09' W 002°05'0 0.0
2020-Jan-26 11:28N 57°09' W 002°05'0 0.0
2020-Jan-26 10:58N 57°09' W 002°05'0 0.0
2020-Jan-26 09:58N 57°09' W 002°05'0 0.0
2020-Jan-26 09:28N 57°09' W 002°05'16 4.0
2020-Jan-26 05:30N 57°21' W 001°46'7 0.2
2020-Jan-24 20:30N 57°27' W 001°39'714.7
2020-Jan-24 20:00N 57°20' W 001°47'715.0
2020-Jan-24 19:30N 57°14' W 001°55'8 2.3
2020-Jan-24 15:57N 57°09' W 002°05'0 0.0
2020-Jan-24 14:58N 57°09' W 002°05'0 0.0
2020-Jan-24 13:58N 57°09' W 002°05'0 0.0
2020-Jan-24 11:58N 57°09' W 002°05'0 0.0
2020-Jan-24 10:58N 57°09' W 002°05'0 0.0
2020-Jan-24 10:28N 57°09' W 002°05'0 0.0
2020-Jan-24 09:58N 57°09' W 002°05'0 0.0
2020-Jan-24 07:25N 57°09' W 002°05'0 0.0
2020-Jan-24 07:00N 57°09' W 002°05'3610.3
2020-Jan-24 03:30N 57°41' W 001°37'35 1.1
2020-Jan-22 19:00N 57°10' W 002°02'2 0.5
2020-Jan-22 15:00N 57°09' W 002°05'0 0.0
2020-Jan-22 12:58N 57°09' W 002°05'0 0.0
2020-Jan-22 10:57N 57°09' W 002°05'0 0.0
2020-Jan-22 09:01N 57°09' W 002°05'0 0.0
2020-Jan-22 08:31N 57°09' W 002°05'30 6.7
2020-Jan-22 04:00N 57°34' W 001°37'611.7
2020-Jan-22 03:30N 57°40' W 001°37'73 2.8
2020-Jan-21 01:15N 58°51' W 002°18'7517.6
2020-Jan-20 21:00N 57°39' W 001°39'3313.0
2020-Jan-20 18:28N 57°09' W 002°05'0 0.0
2020-Jan-20 16:58N 57°09' W 002°05'0 0.0
2020-Jan-20 14:58N 57°09' W 002°05'0 0.0
2020-Jan-20 13:28N 57°09' W 002°05'0 0.0
2020-Jan-20 11:58N 57°09' W 002°05'0 0.0
2020-Jan-20 10:58N 57°09' W 002°05'0 0.0
2020-Jan-20 09:28N 57°09' W 002°05'0 0.0
2020-Jan-20 08:58N 57°09' W 002°05'0 0.0
2020-Jan-20 07:01N 57°09' W 002°05'5 5.3
2020-Jan-20 06:01N 57°12' W 001°57'714.2
2020-Jan-20 05:30N 57°18' W 001°50'815.9
2020-Jan-20 05:00N 57°25' W 001°44'100 3.6
2020-Jan-19 01:00N 59°01' W 002°42'714.2
2020-Jan-19 00:30N 59°01' W 002°55'30 9.7
2020-Jan-18 21:28N 58°35' W 002°30'5221.9
2020-Jan-18 19:04N 57°46' W 001°53'2119.6
2020-Jan-18 18:00N 57°26' W 001°43'  
Track history (hours):
 
Tides and Currents Weather Stations Pressure Air Temp Water Temp Dewpoint Dewpoint Depression Visibility Wind Speed Wind Dir Waves Ship Positions

Hrossey

Operator: NorthLink Orkey & Shetland Ferries Ltd

Last reported at 2020-Jan-28 17:58 UTC. Time now 2020-Jan-28 19:27 UTC.
Position N 57°09' W 002°05'.

Length 125 m; draft 5.4 m.

Type: Ship. MMSI: 235448000.

Date/timePositionNaut miles runAvg speedWind from/ knotsBaromVisibWave heightAir tempDewpointWater temp
2020-Jan-28 17:58N 57°09' W 002°05'0 0.0
2020-Jan-28 13:59N 57°09' W 002°05'0 0.0
2020-Jan-28 13:29N 57°09' W 002°05'0 0.0
2020-Jan-28 10:59N 57°09' W 002°05'26 4.0
2020-Jan-28 04:30N 57°30' W 001°38'98 3.6
2020-Jan-27 01:09N 59°04' W 002°28'10 3.7
2020-Jan-26 22:30N 58°60' W 002°46'917.0
2020-Jan-26 22:00N 58°54' W 002°34'7722.0
2020-Jan-26 18:31N 57°41' W 001°46'1224.5
2020-Jan-26 18:01N 57°29' W 001°42'24 9.4
2020-Jan-26 15:28N 57°09' W 002°05'0 0.0
2020-Jan-26 14:28N 57°09' W 002°05'0 0.0
2020-Jan-26 13:58N 57°09' W 002°05'0 0.0
2020-Jan-26 11:58N 57°09' W 002°05'0 0.0
2020-Jan-26 11:28N 57°09' W 002°05'0 0.0
2020-Jan-26 10:58N 57°09' W 002°05'0 0.0
2020-Jan-26 09:58N 57°09' W 002°05'0 0.0
2020-Jan-26 09:28N 57°09' W 002°05'16 4.0
2020-Jan-26 05:30N 57°21' W 001°46'7 0.2
2020-Jan-24 20:30N 57°27' W 001°39'714.7
2020-Jan-24 20:00N 57°20' W 001°47'715.0
2020-Jan-24 19:30N 57°14' W 001°55'8 2.3
2020-Jan-24 15:57N 57°09' W 002°05'0 0.0
2020-Jan-24 14:58N 57°09' W 002°05'0 0.0
2020-Jan-24 13:58N 57°09' W 002°05'0 0.0
2020-Jan-24 11:58N 57°09' W 002°05'0 0.0
2020-Jan-24 10:58N 57°09' W 002°05'0 0.0
2020-Jan-24 10:28N 57°09' W 002°05'0 0.0
2020-Jan-24 09:58N 57°09' W 002°05'0 0.0
2020-Jan-24 07:25N 57°09' W 002°05'0 0.0
2020-Jan-24 07:00N 57°09' W 002°05'3610.3
2020-Jan-24 03:30N 57°41' W 001°37'35 1.1
2020-Jan-22 19:00N 57°10' W 002°02'2 0.5
2020-Jan-22 15:00N 57°09' W 002°05'0 0.0
2020-Jan-22 12:58N 57°09' W 002°05'0 0.0
2020-Jan-22 10:57N 57°09' W 002°05'0 0.0
2020-Jan-22 09:01N 57°09' W 002°05'0 0.0
2020-Jan-22 08:31N 57°09' W 002°05'30 6.7
2020-Jan-22 04:00N 57°34' W 001°37'611.7
2020-Jan-22 03:30N 57°40' W 001°37'73 2.8
2020-Jan-21 01:15N 58°51' W 002°18'7517.6
2020-Jan-20 21:00N 57°39' W 001°39'3313.0
2020-Jan-20 18:28N 57°09' W 002°05'0 0.0
2020-Jan-20 16:58N 57°09' W 002°05'0 0.0
2020-Jan-20 14:58N 57°09' W 002°05'0 0.0
2020-Jan-20 13:28N 57°09' W 002°05'0 0.0
2020-Jan-20 11:58N 57°09' W 002°05'0 0.0
2020-Jan-20 10:58N 57°09' W 002°05'0 0.0
2020-Jan-20 09:28N 57°09' W 002°05'0 0.0
2020-Jan-20 08:58N 57°09' W 002°05'0 0.0
2020-Jan-20 07:01N 57°09' W 002°05'5 5.3
2020-Jan-20 06:01N 57°12' W 001°57'714.2
2020-Jan-20 05:30N 57°18' W 001°50'815.9
2020-Jan-20 05:00N 57°25' W 001°44'100 3.6
2020-Jan-19 01:00N 59°01' W 002°42'714.2
2020-Jan-19 00:30N 59°01' W 002°55'30 9.7
2020-Jan-18 21:28N 58°35' W 002°30'5221.9
2020-Jan-18 19:04N 57°46' W 001°53'2119.6
2020-Jan-18 18:00N 57°26' W 001°43'  

Dump ship's entire track history